Alpine, KY

8:51 PM EDT on September 19, 2014 (GMT -0400)
Somerset-Pulaski County-Wilson | Change Station
CLOSE
Current Station
Airport
Location: Somerset,
Elevation: 928 ft
Nearby Weather Stations

Elev 928 ft 37.05 °N, 84.62 °W | Updated 16 minutes ago

Clear
Clear
68 °F
Feels Like 68 °F
N
0
Wind Variable Wind from North

Today
High -- | Low -- °F
--% Chance of Precip.
Yesterday
High -- | Low -- °F
Precip. -- in
7:23 AM 7:39 PM
Waning Crescent, 16% visible
Pressure 30.09 in
Visibility 10.0 miles
Clouds Clear
Dew Point 61 °F
Humidity 78%
Rainfall 0.00 in
Snow Depth Not available.
UV 0 out of 12
Pollen 6.00 out of 12
Air Quality Not available.
Flu Activity Not available.
METAR KSME 200035Z AUTO 00000KT 10SM CLR 20/16 A3009 RMK AO2

More Conditions Fewer Conditions

Pressure 30.09 in
Visibility 10.0 miles
Clouds Clear
Dew Point 61 °F
Humidity 78%
Rainfall 0.00 in
Snow Depth Not available.
UV 0 out of 12
Pollen 6.00 out of 12
Air Quality Not available.
Flu Activity Not available.
METAR KSME 200035Z AUTO 00000KT 10SM CLR 20/16 A3009 RMK AO2

More Conditions Fewer Conditions

10-Day Weather Forecast

Almanac

Astronomy

Sep. 19, 2014 Rise Set
Actual Time 7:23 AM EDT 7:39 PM EDT
Civil Twilight 6:57 AM EDT 8:05 PM EDT
Nautical Twilight 6:27 AM EDT 8:35 PM EDT
Astronomical Twilight 5:56 AM EDT 9:06 PM EDT
Moon 3:12 AM EDT (9/19) 5:03 PM EDT (9/19)
Length of Visible Light 13h 07m
Length of Day
12h 16m
Tomorrow will be 2m 20s shorter.
Waning Crescent, 16% of the Moon is Illuminated
Today
Waning Crescent
Sep 24
New
Oct 1
First Quarter
Oct 8
Full
Oct 15
Last Quarter

Today's Extremes

State Highs State Lows

Community

WunderPhotos

Upload Photos

1,754,744 photos uploaded!

WunderBlogs® & News

Nearby

Snow Depth

Station Depth Elevation
No new snow has been reported.

Earthquake Activity

City Distance Mag. Time & Date
No recent earthquake activity has been reported nearby.
Minimum magnitude displayed is 2.5.

Coastal Water Temperatures

Place Temperature
No Stations Reporting

Nearby Weather Stations